»·PEaware :: N544JH KLAS-KEGE

N544JH :: KLAS-KEGE

FLIGHT INFORMATION

Flight Status: Arrived
Operator: Privately registered:
United States
More flights under this callsign
Pilot: Merv A. (1555)
Aircraft: Unknown
(B60T)
More flights by this aircraft type
Origin: KLAS McCarran Intl
United States
Destination: KEGE Eagle Co Regl
United States
More flights between these airports :: More routes between these airports
Route: MMM V8 RLG
File this flight plan on PilotEdge
Remarks: rmk / custom time
Altitude:
(Current/Filed)
21,000ft
Speed:
(Current/Filed)
260kts
Departed: 13-Jan-18 05:00 PM
Arrived: 13-Jan-18 07:16 PM
Distance/Time
Traveled:
445nm/2:16
Distance/Time
To Go:
Arrived

Flight Plot

Page will automatically refresh every two minutes.

Flight plan parsing failed; only flown route is shown


Map Options




Map Legend


Flown Route
Filed Route
Departure Airport
Arrival Airport
Navaid (VOR, NDB)
Fix

Horizontal Profiles

Position Reports

Time Latitude Longitude Heading Altitude Ground
Speed
13-Jan-18 16:30 36.086290 -115.167330 114 2184ft 0kts
13-Jan-18 16:31 36.086290 -115.167330 114 2184ft 0kts
13-Jan-18 16:32 36.086290 -115.167330 114 2184ft 0kts
13-Jan-18 16:33 36.086290 -115.167330 114 2184ft 0kts
13-Jan-18 16:34 36.086290 -115.167330 114 2184ft 0kts
13-Jan-18 16:35 36.086290 -115.167330 114 2184ft 0kts
13-Jan-18 16:36 36.086290 -115.167330 114 2184ft 0kts
13-Jan-18 16:37 36.086290 -115.167330 114 2184ft 0kts
13-Jan-18 16:38 36.086290 -115.167330 114 2184ft 0kts
13-Jan-18 16:39 36.086290 -115.167330 114 2184ft 0kts
13-Jan-18 16:40 36.086290 -115.167330 114 2184ft 0kts
13-Jan-18 16:41 36.086290 -115.167330 114 2184ft 0kts
13-Jan-18 16:42 36.086290 -115.167330 114 2184ft 0kts
13-Jan-18 16:43 36.086289 -115.167327 114 2184ft 0kts
13-Jan-18 16:44 36.086288 -115.167325 114 2184ft 0kts
13-Jan-18 16:45 36.086288 -115.167325 114 2184ft 0kts
13-Jan-18 16:46 36.086288 -115.167325 114 2184ft 0kts
13-Jan-18 16:47 36.086288 -115.167325 114 2184ft 0kts
13-Jan-18 16:48 36.086288 -115.167325 114 2184ft 0kts
13-Jan-18 16:49 36.086288 -115.167325 114 2184ft 0kts
13-Jan-18 16:50 36.086288 -115.167325 114 2184ft 0kts
13-Jan-18 16:51 36.086288 -115.167325 114 2184ft 0kts
13-Jan-18 16:52 36.086288 -115.167325 114 2184ft 0kts
13-Jan-18 16:53 36.086288 -115.167325 114 2184ft 0kts
13-Jan-18 16:54 36.086288 -115.167325 114 2184ft 0kts
13-Jan-18 16:55 36.086288 -115.167323 114 2184ft 0kts
13-Jan-18 16:56 36.086286 -115.167319 114 2184ft 0kts
13-Jan-18 16:57 36.086283 -115.167310 114 2184ft 0kts
13-Jan-18 16:58 36.087049 -115.166077 24 2184ft 7kts
13-Jan-18 16:59 36.089985 -115.164409 24 2184ft 12kts
13-Jan-18 17:00 36.093204 -115.162567 24 2184ft 12kts
13-Jan-18 17:01 36.096417 -115.160729 24 2184ft 12kts
13-Jan-18 17:02 36.099564 -115.158762 66 2184ft 11kts
13-Jan-18 17:03 36.099905 -115.157476 95 2184ft 0kts
13-Jan-18 17:04 36.099789 -115.157085 118 2184ft 6kts
13-Jan-18 17:05 36.098717 -115.156999 203 2184ft 27kts
13-Jan-18 17:06 36.073322 -115.171491 202 3049ft 124kts
13-Jan-18 17:07 36.034657 -115.193290 202 4950ft 172kts
13-Jan-18 17:08 35.990643 -115.210103 186 5006ft 165kts
13-Jan-18 17:09 35.945183 -115.216373 185 5470ft 162kts
13-Jan-18 17:10 35.896698 -115.222697 185 7286ft 178kts
13-Jan-18 17:11 35.846901 -115.226617 159 9174ft 182kts
13-Jan-18 17:12 35.831006 -115.170723 91 11009ft 191kts
13-Jan-18 17:13 35.826999 -115.103661 91 12807ft 200kts
13-Jan-18 17:14 35.822772 -115.034468 91 14609ft 203kts
13-Jan-18 17:15 35.818485 -114.957707 91 14991ft 242kts
13-Jan-18 17:16 35.814174 -114.874962 91 14985ft 240kts
13-Jan-18 17:17 35.810056 -114.792474 91 14997ft 240kts
13-Jan-18 17:18 35.806667 -114.722889 91 14998ft 245kts
13-Jan-18 17:19 35.802042 -114.624865 91 14993ft 246kts
13-Jan-18 17:20 35.798184 -114.540712 91 14987ft 246kts
13-Jan-18 17:21 35.794431 -114.456517 91 14985ft 246kts
13-Jan-18 17:22 35.791446 -114.389849 91 16149ft 226kts
13-Jan-18 17:23 35.787589 -114.301467 91 18235ft 218kts
13-Jan-18 17:24 35.813593 -114.241977 31 20047ft 209kts
13-Jan-18 17:25 35.862976 -114.198062 31 21279ft 233kts
13-Jan-18 17:26 35.909267 -114.157881 31 21351ft 249kts
13-Jan-18 17:27 35.966505 -114.108437 31 21362ft 253kts
13-Jan-18 17:28 36.025650 -114.057807 31 21372ft 263kts
13-Jan-18 17:29 36.086808 -114.005683 31 21372ft 268kts
13-Jan-18 17:30 36.148289 -113.953310 31 21374ft 270kts
13-Jan-18 17:31 36.210264 -113.900506 31 21388ft 269kts
13-Jan-18 17:32 36.271374 -113.848219 31 21397ft 266kts
13-Jan-18 17:33 36.332412 -113.795633 31 21400ft 265kts
13-Jan-18 17:34 36.392908 -113.743434 30 21402ft 265kts
13-Jan-18 17:35 36.453244 -113.690982 31 21404ft 265kts
13-Jan-18 17:36 36.513501 -113.638446 31 21406ft 265kts
13-Jan-18 17:37 36.573821 -113.585463 31 21412ft 264kts
13-Jan-18 17:38 36.633939 -113.532369 31 21425ft 264kts
13-Jan-18 17:39 36.693602 -113.479451 31 21425ft 264kts
13-Jan-18 17:40 36.753770 -113.425876 31 21427ft 264kts
13-Jan-18 17:41 36.813227 -113.372643 31 21428ft 264kts
13-Jan-18 17:42 36.873032 -113.319049 31 21431ft 264kts
13-Jan-18 17:43 36.932531 -113.265576 31 21435ft 263kts
13-Jan-18 17:44 36.992093 -113.211722 31 21440ft 263kts
13-Jan-18 17:45 37.051422 -113.157987 30 21442ft 263kts
13-Jan-18 17:46 37.110775 -113.103843 31 21443ft 263kts
13-Jan-18 17:47 37.169891 -113.049861 31 21445ft 263kts
13-Jan-18 17:48 37.228869 -112.995796 30 21452ft 262kts
13-Jan-18 17:49 37.287860 -112.941424 31 21457ft 262kts
13-Jan-18 17:50 37.346646 -112.887217 30 21459ft 262kts
13-Jan-18 17:51 37.405858 -112.833385 30 21462ft 262kts
13-Jan-18 17:52 37.464269 -112.778681 33 21464ft 262kts
13-Jan-18 17:53 37.507850 -112.703815 55 21468ft 271kts
13-Jan-18 17:54 37.545178 -112.620919 54 21471ft 271kts
13-Jan-18 17:55 37.582650 -112.538593 54 21479ft 271kts
13-Jan-18 17:56 37.620201 -112.456009 54 21485ft 270kts
13-Jan-18 17:57 37.657534 -112.373721 54 21491ft 270kts
13-Jan-18 17:58 37.694802 -112.291466 53 21495ft 270kts
13-Jan-18 17:59 37.732886 -112.209638 53 21498ft 269kts
13-Jan-18 18:00 37.770733 -112.127938 53 21498ft 269kts
13-Jan-18 18:01 37.808490 -112.046195 53 21497ft 269kts
13-Jan-18 18:02 37.846299 -111.964134 53 21496ft 269kts
13-Jan-18 18:03 37.883936 -111.882246 53 21494ft 269kts
13-Jan-18 18:04 37.921522 -111.800249 53 21492ft 269kts
13-Jan-18 18:05 37.959298 -111.717620 53 21490ft 269kts
13-Jan-18 18:06 37.996795 -111.635400 54 21488ft 270kts
13-Jan-18 18:07 38.034263 -111.553018 53 21487ft 270kts
13-Jan-18 18:08 38.071695 -111.470549 53 21482ft 270kts
13-Jan-18 18:09 38.109053 -111.387967 53 21491ft 270kts
13-Jan-18 18:10 38.146474 -111.305054 53 21490ft 270kts
13-Jan-18 18:11 38.183710 -111.222341 53 21489ft 270kts
13-Jan-18 18:12 38.220908 -111.139508 53 21487ft 270kts
13-Jan-18 18:13 38.258356 -111.055893 53 21485ft 270kts
13-Jan-18 18:14 38.295535 -110.972654 52 21482ft 271kts
13-Jan-18 18:15 38.332698 -110.889243 53 21481ft 271kts
13-Jan-18 18:16 38.369966 -110.805369 52 21479ft 271kts
13-Jan-18 18:17 38.407051 -110.721691 52 21479ft 271kts
13-Jan-18 18:18 38.439780 -110.633800 58 21479ft 275kts
13-Jan-18 18:19 38.470672 -110.544619 58 21478ft 275kts
13-Jan-18 18:20 38.501545 -110.455324 58 21477ft 275kts
13-Jan-18 18:21 38.532349 -110.365985 58 21473ft 275kts
13-Jan-18 18:22 38.563141 -110.276395 58 21468ft 274kts
13-Jan-18 18:23 38.593712 -110.187201 58 21462ft 273kts
13-Jan-18 18:24 38.624082 -110.098320 58 21456ft 273kts
13-Jan-18 18:25 38.654381 -110.009351 58 21449ft 273kts
13-Jan-18 18:26 38.684645 -109.920210 58 21444ft 273kts
13-Jan-18 18:27 38.715012 -109.830554 58 21440ft 274kts
13-Jan-18 18:28 38.745180 -109.741143 58 21439ft 273kts
13-Jan-18 18:29 38.775378 -109.651389 58 21439ft 273kts
13-Jan-18 18:30 38.805389 -109.561911 57 21441ft 273kts
13-Jan-18 18:31 38.835368 -109.472261 57 21445ft 273kts
13-Jan-18 18:32 38.865206 -109.382702 57 21451ft 273kts
13-Jan-18 18:33 38.895079 -109.292772 57 21457ft 273kts
13-Jan-18 18:34 38.924777 -109.203092 57 21465ft 273kts
13-Jan-18 18:35 38.954491 -109.113082 57 21471ft 273kts
13-Jan-18 18:36 38.984052 -109.023245 57 21477ft 273kts
13-Jan-18 18:37 39.013664 -108.933005 57 21481ft 273kts
13-Jan-18 18:38 39.043126 -108.842873 56 21484ft 273kts
13-Jan-18 18:39 39.075652 -108.755771 49 21487ft 267kts
13-Jan-18 18:40 39.112565 -108.672497 49 21488ft 267kts
13-Jan-18 18:41 39.149204 -108.589316 49 21488ft 267kts
13-Jan-18 18:42 39.185797 -108.506011 49 21489ft 267kts
13-Jan-18 18:43 39.222383 -108.422485 49 21489ft 266kts
13-Jan-18 18:44 39.258991 -108.339562 48 21490ft 266kts
13-Jan-18 18:45 39.295527 -108.256819 48 21492ft 265kts
13-Jan-18 18:46 39.331854 -108.173894 48 21493ft 265kts
13-Jan-18 18:47 39.368207 -108.090249 48 21495ft 265kts
13-Jan-18 18:48 39.404183 -108.007291 48 21498ft 265kts
13-Jan-18 18:49 39.440094 -107.924314 48 21500ft 264kts
13-Jan-18 18:50 39.475842 -107.841508 48 21501ft 264kts
13-Jan-18 18:51 39.511661 -107.758307 48 21499ft 264kts
13-Jan-18 18:52 39.546447 -107.673952 52 21499ft 267kts
13-Jan-18 18:53 39.578246 -107.588016 51 21504ft 262kts
13-Jan-18 18:54 39.610118 -107.503209 50 21511ft 257kts
13-Jan-18 18:55 39.641048 -107.420998 50 21516ft 252kts
13-Jan-18 18:56 39.671629 -107.339530 50 21518ft 251kts
13-Jan-18 18:57 39.702792 -107.258534 50 21512ft 251kts
13-Jan-18 18:58 39.732946 -107.176804 50 21507ft 251kts
13-Jan-18 18:59 39.763488 -107.094261 50 21505ft 257kts
13-Jan-18 19:00 39.794511 -107.010108 50 21501ft 259kts
13-Jan-18 19:01 39.829998 -106.931155 40 20244ft 239kts
13-Jan-18 19:02 39.869197 -106.863388 39 18885ft 228kts
13-Jan-18 19:03 39.906319 -106.798779 39 17485ft 218kts
13-Jan-18 19:04 39.943260 -106.736291 39 16131ft 216kts
13-Jan-18 19:05 39.980754 -106.675484 39 14834ft 215kts
13-Jan-18 19:06 40.018818 -106.615753 39 14194ft 211kts
13-Jan-18 19:07 40.046311 -106.549636 91 13998ft 236kts
13-Jan-18 19:08 40.011482 -106.473145 121 13991ft 253kts
13-Jan-18 19:09 39.952633 -106.461418 213 13993ft 213kts
13-Jan-18 19:10 39.896777 -106.487123 208 14005ft 212kts
13-Jan-18 19:11 39.840380 -106.510887 207 14006ft 212kts
13-Jan-18 19:12 39.784004 -106.534503 207 13802ft 202kts
13-Jan-18 19:13 39.730197 -106.557124 207 13029ft 203kts
13-Jan-18 19:14 39.689917 -106.592861 253 12556ft 165kts
13-Jan-18 19:15 39.680219 -106.648342 268 11858ft 145kts
13-Jan-18 19:16 39.674349 -106.693530 265 10957ft 116kts
13-Jan-18 19:17 39.668800 -106.737117 259 9955ft 125kts
13-Jan-18 19:18 39.660802 -106.780543 253 8597ft 125kts
13-Jan-18 19:19 39.652956 -106.823347 260 8135ft 119kts
13-Jan-18 19:20 39.648381 -106.863605 261 7383ft 109kts
13-Jan-18 19:21 39.644269 -106.902156 263 6580ft 101kts
13-Jan-18 19:22 39.642014 -106.923913 260 6518ft 35kts
13-Jan-18 19:23 39.640639 -106.927833 158 6518ft 0kts
13-Jan-18 19:24 39.640466 -106.926791 82 6518ft 4kts
13-Jan-18 19:25 39.640914 -106.922644 81 6518ft 14kts
13-Jan-18 19:26 39.641392 -106.918268 81 6518ft 13kts
13-Jan-18 19:27 39.641943 -106.913274 81 6518ft 10kts
13-Jan-18 19:28 39.642292 -106.910092 81 6518ft 10kts
13-Jan-18 19:29 39.642589 -106.906437 137 6518ft 7kts
13-Jan-18 19:30 39.641094 -106.905486 187 6518ft 5kts
13-Jan-18 19:31 39.640933 -106.905118 81 6518ft 0kts
13-Jan-18 19:32 39.640933 -106.905118 81 6518ft 0kts
13-Jan-18 19:33 39.640933 -106.905118 81 6518ft 0kts
13-Jan-18 19:34 39.640933 -106.905118 81 6518ft 0kts

Navigation Log

Ident Type
Flight plan parsing failed, navigation log unavailable